sensor_id;sensor_type;location;lat;lon;timestamp;temperature;humidity
12520;DHT22;6325;49.540;8.364;2023-05-28T00:01:27;15.80;99.90
12520;DHT22;6325;49.540;8.364;2023-05-28T00:03:55;15.90;99.90
12520;DHT22;6325;49.540;8.364;2023-05-28T00:06:22;15.20;99.90
12520;DHT22;6325;49.540;8.364;2023-05-28T00:08:48;15.30;99.90
12520;DHT22;6325;49.540;8.364;2023-05-28T00:11:15;15.70;99.90
12520;DHT22;6325;49.540;8.364;2023-05-28T00:13:43;15.90;99.90
12520;DHT22;6325;49.540;8.364;2023-05-28T00:16:10;15.60;99.90
12520;DHT22;6325;49.540;8.364;2023-05-28T00:18:38;15.50;99.90
12520;DHT22;6325;49.540;8.364;2023-05-28T00:21:05;15.50;99.90
12520;DHT22;6325;49.540;8.364;2023-05-28T00:23:33;15.60;99.90
12520;DHT22;6325;49.540;8.364;2023-05-28T00:26:00;15.20;99.90
12520;DHT22;6325;49.540;8.364;2023-05-28T00:28:27;15.30;99.90
12520;DHT22;6325;49.540;8.364;2023-05-28T00:30:55;15.50;99.90
12520;DHT22;6325;49.540;8.364;2023-05-28T00:33:22;15.40;99.90
12520;DHT22;6325;49.540;8.364;2023-05-28T00:35:49;15.50;99.90
12520;DHT22;6325;49.540;8.364;2023-05-28T00:38:21;15.40;99.90
12520;DHT22;6325;49.540;8.364;2023-05-28T00:40:48;15.10;99.90
12520;DHT22;6325;49.540;8.364;2023-05-28T00:43:15;15.40;99.90
12520;DHT22;6325;49.540;8.364;2023-05-28T00:45:42;15.20;99.90
12520;DHT22;6325;49.540;8.364;2023-05-28T00:48:11;15.30;99.90
12520;DHT22;6325;49.540;8.364;2023-05-28T00:50:39;15.20;99.90
12520;DHT22;6325;49.540;8.364;2023-05-28T00:53:06;15.20;99.90
12520;DHT22;6325;49.540;8.364;2023-05-28T00:55:34;14.90;99.90
12520;DHT22;6325;49.540;8.364;2023-05-28T00:58:01;15.00;99.90
12520;DHT22;6325;49.540;8.364;2023-05-28T01:00:31;14.90;99.90
12520;DHT22;6325;49.540;8.364;2023-05-28T01:02:58;15.20;99.90
12520;DHT22;6325;49.540;8.364;2023-05-28T01:05:27;15.00;99.90
12520;DHT22;6325;49.540;8.364;2023-05-28T01:07:57;15.20;99.90
12520;DHT22;6325;49.540;8.364;2023-05-28T01:10:24;14.90;99.90
12520;DHT22;6325;49.540;8.364;2023-05-28T01:12:51;14.80;99.90
12520;DHT22;6325;49.540;8.364;2023-05-28T01:15:19;14.50;99.90
12520;DHT22;6325;49.540;8.364;2023-05-28T01:17:46;14.20;99.90
12520;DHT22;6325;49.540;8.364;2023-05-28T01:20:13;14.70;99.90
12520;DHT22;6325;49.540;8.364;2023-05-28T01:22:46;14.90;99.90
12520;DHT22;6325;49.540;8.364;2023-05-28T01:25:19;14.80;99.90
12520;DHT22;6325;49.540;8.364;2023-05-28T01:27:46;14.80;99.90
12520;DHT22;6325;49.540;8.364;2023-05-28T01:30:13;14.10;99.90
12520;DHT22;6325;49.540;8.364;2023-05-28T01:32:40;14.90;99.90
12520;DHT22;6325;49.540;8.364;2023-05-28T01:35:08;14.90;99.90
12520;DHT22;6325;49.540;8.364;2023-05-28T01:37:37;14.30;99.90
12520;DHT22;6325;49.540;8.364;2023-05-28T01:40:07;14.60;99.90
12520;DHT22;6325;49.540;8.364;2023-05-28T01:42:37;14.30;99.90
12520;DHT22;6325;49.540;8.364;2023-05-28T01:45:05;14.90;99.90
12520;DHT22;6325;49.540;8.364;2023-05-28T01:47:33;14.30;99.90
12520;DHT22;6325;49.540;8.364;2023-05-28T01:50:00;14.40;99.90
12520;DHT22;6325;49.540;8.364;2023-05-28T01:52:27;13.70;99.90
12520;DHT22;6325;49.540;8.364;2023-05-28T01:54:54;14.00;99.90
12520;DHT22;6325;49.540;8.364;2023-05-28T01:57:21;14.40;99.90
12520;DHT22;6325;49.540;8.364;2023-05-28T01:59:49;14.20;99.90
12520;DHT22;6325;49.540;8.364;2023-05-28T02:02:15;13.80;99.90
12520;DHT22;6325;49.540;8.364;2023-05-28T02:04:43;13.70;99.90
12520;DHT22;6325;49.540;8.364;2023-05-28T02:07:09;14.00;99.90
12520;DHT22;6325;49.540;8.364;2023-05-28T02:09:37;14.60;99.90
12520;DHT22;6325;49.540;8.364;2023-05-28T02:12:04;14.10;99.90
12520;DHT22;6325;49.540;8.364;2023-05-28T02:14:31;14.30;99.90
12520;DHT22;6325;49.540;8.364;2023-05-28T02:16:59;14.60;99.90
12520;DHT22;6325;49.540;8.364;2023-05-28T02:19:26;14.40;99.90
12520;DHT22;6325;49.540;8.364;2023-05-28T02:21:54;14.60;99.90
12520;DHT22;6325;49.540;8.364;2023-05-28T02:24:21;14.00;99.90
12520;DHT22;6325;49.540;8.364;2023-05-28T02:26:48;14.00;99.90
12520;DHT22;6325;49.540;8.364;2023-05-28T02:29:15;13.80;99.90
12520;DHT22;6325;49.540;8.364;2023-05-28T02:31:42;13.90;99.90
12520;DHT22;6325;49.540;8.364;2023-05-28T02:34:11;13.90;99.90
12520;DHT22;6325;49.540;8.364;2023-05-28T02:36:38;13.90;99.90
12520;DHT22;6325;49.540;8.364;2023-05-28T02:39:04;13.80;99.90
12520;DHT22;6325;49.540;8.364;2023-05-28T02:41:32;13.40;99.90
12520;DHT22;6325;49.540;8.364;2023-05-28T02:43:59;13.80;99.90
12520;DHT22;6325;49.540;8.364;2023-05-28T02:46:26;13.80;99.90
12520;DHT22;6325;49.540;8.364;2023-05-28T02:48:53;13.80;99.90
12520;DHT22;6325;49.540;8.364;2023-05-28T02:51:21;14.00;99.90
12520;DHT22;6325;49.540;8.364;2023-05-28T02:53:49;13.20;99.90
12520;DHT22;6325;49.540;8.364;2023-05-28T02:56:16;13.70;99.90
12520;DHT22;6325;49.540;8.364;2023-05-28T02:58:43;14.00;99.90
12520;DHT22;6325;49.540;8.364;2023-05-28T03:01:11;13.70;99.90
12520;DHT22;6325;49.540;8.364;2023-05-28T03:03:38;13.80;99.90
12520;DHT22;6325;49.540;8.364;2023-05-28T03:06:05;13.60;99.90
12520;DHT22;6325;49.540;8.364;2023-05-28T03:08:33;13.70;99.90
12520;DHT22;6325;49.540;8.364;2023-05-28T03:11:00;13.60;99.90
12520;DHT22;6325;49.540;8.364;2023-05-28T03:13:27;13.40;99.90
12520;DHT22;6325;49.540;8.364;2023-05-28T03:15:54;13.90;99.90
12520;DHT22;6325;49.540;8.364;2023-05-28T03:18:21;13.60;99.90
12520;DHT22;6325;49.540;8.364;2023-05-28T03:20:48;13.80;99.90
12520;DHT22;6325;49.540;8.364;2023-05-28T03:23:15;13.80;99.90
12520;DHT22;6325;49.540;8.364;2023-05-28T03:25:43;13.30;99.90
12520;DHT22;6325;49.540;8.364;2023-05-28T03:28:10;13.00;99.90
12520;DHT22;6325;49.540;8.364;2023-05-28T03:30:36;13.30;99.90
12520;DHT22;6325;49.540;8.364;2023-05-28T03:33:05;13.30;99.90
12520;DHT22;6325;49.540;8.364;2023-05-28T03:35:31;13.70;99.90
12520;DHT22;6325;49.540;8.364;2023-05-28T03:37:58;13.40;99.90
12520;DHT22;6325;49.540;8.364;2023-05-28T03:40:25;13.20;99.90
12520;DHT22;6325;49.540;8.364;2023-05-28T03:42:53;13.00;99.90
12520;DHT22;6325;49.540;8.364;2023-05-28T03:45:21;13.00;99.90
12520;DHT22;6325;49.540;8.364;2023-05-28T03:47:48;13.50;99.90
12520;DHT22;6325;49.540;8.364;2023-05-28T03:50:14;13.30;99.90
12520;DHT22;6325;49.540;8.364;2023-05-28T03:52:42;13.60;99.90
12520;DHT22;6325;49.540;8.364;2023-05-28T03:55:09;13.20;99.90
12520;DHT22;6325;49.540;8.364;2023-05-28T03:57:36;13.50;99.90
12520;DHT22;6325;49.540;8.364;2023-05-28T04:00:08;13.80;99.90
12520;DHT22;6325;49.540;8.364;2023-05-28T04:02:36;12.80;99.90
12520;DHT22;6325;49.540;8.364;2023-05-28T04:05:03;12.60;99.90
12520;DHT22;6325;49.540;8.364;2023-05-28T04:07:30;13.40;99.90
12520;DHT22;6325;49.540;8.364;2023-05-28T04:09:57;12.60;99.90
12520;DHT22;6325;49.540;8.364;2023-05-28T04:12:24;13.30;99.90
12520;DHT22;6325;49.540;8.364;2023-05-28T04:14:51;13.40;99.90
12520;DHT22;6325;49.540;8.364;2023-05-28T04:17:19;13.10;99.90
12520;DHT22;6325;49.540;8.364;2023-05-28T04:19:46;12.90;99.90
12520;DHT22;6325;49.540;8.364;2023-05-28T04:22:13;13.50;99.90
12520;DHT22;6325;49.540;8.364;2023-05-28T04:24:40;13.30;99.90
12520;DHT22;6325;49.540;8.364;2023-05-28T04:27:07;13.10;99.90
12520;DHT22;6325;49.540;8.364;2023-05-28T04:29:33;13.10;99.90
12520;DHT22;6325;49.540;8.364;2023-05-28T04:32:00;13.00;99.90
12520;DHT22;6325;49.540;8.364;2023-05-28T04:34:30;13.50;99.90
12520;DHT22;6325;49.540;8.364;2023-05-28T04:36:58;13.10;99.90
12520;DHT22;6325;49.540;8.364;2023-05-28T04:39:25;12.70;99.90
12520;DHT22;6325;49.540;8.364;2023-05-28T04:41:53;13.10;99.90
12520;DHT22;6325;49.540;8.364;2023-05-28T04:44:19;13.20;99.90
12520;DHT22;6325;49.540;8.364;2023-05-28T04:46:51;13.20;99.90
12520;DHT22;6325;49.540;8.364;2023-05-28T04:49:17;13.30;99.90
12520;DHT22;6325;49.540;8.364;2023-05-28T04:51:46;12.80;99.90
12520;DHT22;6325;49.540;8.364;2023-05-28T04:54:13;13.30;99.90
12520;DHT22;6325;49.540;8.364;2023-05-28T04:56:41;13.40;99.90
12520;DHT22;6325;49.540;8.364;2023-05-28T04:59:08;13.40;99.90
12520;DHT22;6325;49.540;8.364;2023-05-28T05:01:36;13.50;99.90
12520;DHT22;6325;49.540;8.364;2023-05-28T05:04:04;13.30;99.90
12520;DHT22;6325;49.540;8.364;2023-05-28T05:06:32;13.50;99.90
12520;DHT22;6325;49.540;8.364;2023-05-28T05:09:00;13.50;99.90
12520;DHT22;6325;49.540;8.364;2023-05-28T05:11:27;14.00;99.90
12520;DHT22;6325;49.540;8.364;2023-05-28T05:13:53;14.00;99.90
12520;DHT22;6325;49.540;8.364;2023-05-28T05:16:20;13.50;99.90
12520;DHT22;6325;49.540;8.364;2023-05-28T05:18:47;13.90;99.90
12520;DHT22;6325;49.540;8.364;2023-05-28T05:21:15;13.70;99.90
12520;DHT22;6325;49.540;8.364;2023-05-28T05:23:43;13.20;99.90
12520;DHT22;6325;49.540;8.364;2023-05-28T05:26:11;14.20;99.90
12520;DHT22;6325;49.540;8.364;2023-05-28T05:28:38;13.80;99.90
12520;DHT22;6325;49.540;8.364;2023-05-28T05:31:07;14.30;99.90
12520;DHT22;6325;49.540;8.364;2023-05-28T05:33:35;14.40;99.90
12520;DHT22;6325;49.540;8.364;2023-05-28T05:36:01;13.90;99.90
12520;DHT22;6325;49.540;8.364;2023-05-28T05:38:30;14.30;99.90
12520;DHT22;6325;49.540;8.364;2023-05-28T05:40:57;14.10;99.90
12520;DHT22;6325;49.540;8.364;2023-05-28T05:43:25;14.10;99.90
12520;DHT22;6325;49.540;8.364;2023-05-28T05:45:52;13.60;99.90
12520;DHT22;6325;49.540;8.364;2023-05-28T05:48:19;14.20;99.90
12520;DHT22;6325;49.540;8.364;2023-05-28T05:50:49;14.20;99.90
12520;DHT22;6325;49.540;8.364;2023-05-28T05:53:16;14.20;99.90
12520;DHT22;6325;49.540;8.364;2023-05-28T05:55:43;14.70;99.90
12520;DHT22;6325;49.540;8.364;2023-05-28T05:58:10;14.40;99.90
12520;DHT22;6325;49.540;8.364;2023-05-28T06:00:38;14.50;99.90
12520;DHT22;6325;49.540;8.364;2023-05-28T06:03:05;14.60;99.90
12520;DHT22;6325;49.540;8.364;2023-05-28T06:05:32;14.80;99.90
12520;DHT22;6325;49.540;8.364;2023-05-28T06:07:59;14.60;99.90
12520;DHT22;6325;49.540;8.364;2023-05-28T06:10:26;14.70;99.90
12520;DHT22;6325;49.540;8.364;2023-05-28T06:12:53;15.40;99.90
12520;DHT22;6325;49.540;8.364;2023-05-28T06:15:20;14.90;99.90
12520;DHT22;6325;49.540;8.364;2023-05-28T06:17:48;14.90;99.90
12520;DHT22;6325;49.540;8.364;2023-05-28T06:20:15;14.50;99.90
12520;DHT22;6325;49.540;8.364;2023-05-28T06:22:44;15.00;99.90
12520;DHT22;6325;49.540;8.364;2023-05-28T06:25:11;15.20;99.90
12520;DHT22;6325;49.540;8.364;2023-05-28T06:27:39;15.30;99.90
12520;DHT22;6325;49.540;8.364;2023-05-28T06:30:07;15.60;99.90
12520;DHT22;6325;49.540;8.364;2023-05-28T06:32:35;15.60;99.90
12520;DHT22;6325;49.540;8.364;2023-05-28T06:35:03;15.60;99.90
12520;DHT22;6325;49.540;8.364;2023-05-28T06:37:30;15.60;99.90
12520;DHT22;6325;49.540;8.364;2023-05-28T06:39:57;15.80;99.90
12520;DHT22;6325;49.540;8.364;2023-05-28T06:42:24;15.60;99.90
12520;DHT22;6325;49.540;8.364;2023-05-28T06:44:50;15.90;99.90
12520;DHT22;6325;49.540;8.364;2023-05-28T06:47:17;15.70;99.90
12520;DHT22;6325;49.540;8.364;2023-05-28T06:49:44;16.10;99.90
12520;DHT22;6325;49.540;8.364;2023-05-28T06:52:12;16.10;99.90
12520;DHT22;6325;49.540;8.364;2023-05-28T06:54:39;16.20;99.90
12520;DHT22;6325;49.540;8.364;2023-05-28T06:57:06;16.30;99.90
12520;DHT22;6325;49.540;8.364;2023-05-28T06:59:33;16.30;99.90
12520;DHT22;6325;49.540;8.364;2023-05-28T07:01:59;16.40;99.90
12520;DHT22;6325;49.540;8.364;2023-05-28T07:04:26;16.40;99.90
12520;DHT22;6325;49.540;8.364;2023-05-28T07:06:53;16.70;99.90
12520;DHT22;6325;49.540;8.364;2023-05-28T07:09:21;17.30;99.90
12520;DHT22;6325;49.540;8.364;2023-05-28T07:11:48;16.90;99.90
12520;DHT22;6325;49.540;8.364;2023-05-28T07:14:15;17.30;99.90
12520;DHT22;6325;49.540;8.364;2023-05-28T07:16:42;17.30;99.90
12520;DHT22;6325;49.540;8.364;2023-05-28T07:19:09;16.80;99.90
12520;DHT22;6325;49.540;8.364;2023-05-28T07:21:35;16.80;99.90
12520;DHT22;6325;49.540;8.364;2023-05-28T07:24:03;17.40;99.90
12520;DHT22;6325;49.540;8.364;2023-05-28T07:26:33;17.60;99.90
12520;DHT22;6325;49.540;8.364;2023-05-28T07:29:00;17.70;99.90
12520;DHT22;6325;49.540;8.364;2023-05-28T07:31:27;18.20;99.90
12520;DHT22;6325;49.540;8.364;2023-05-28T07:33:57;17.40;99.90
12520;DHT22;6325;49.540;8.364;2023-05-28T07:36:23;18.40;99.90
12520;DHT22;6325;49.540;8.364;2023-05-28T07:38:50;18.20;99.90
12520;DHT22;6325;49.540;8.364;2023-05-28T07:41:17;18.20;99.90
12520;DHT22;6325;49.540;8.364;2023-05-28T07:43:45;18.50;99.90
12520;DHT22;6325;49.540;8.364;2023-05-28T07:46:14;18.40;99.90
12520;DHT22;6325;49.540;8.364;2023-05-28T07:48:42;18.40;99.90
12520;DHT22;6325;49.540;8.364;2023-05-28T07:51:09;18.60;99.90
12520;DHT22;6325;49.540;8.364;2023-05-28T07:53:36;18.80;99.90
12520;DHT22;6325;49.540;8.364;2023-05-28T07:56:03;18.80;99.90
12520;DHT22;6325;49.540;8.364;2023-05-28T07:58:30;19.00;99.90
12520;DHT22;6325;49.540;8.364;2023-05-28T08:00:59;19.50;99.90
12520;DHT22;6325;49.540;8.364;2023-05-28T08:03:26;19.20;99.90
12520;DHT22;6325;49.540;8.364;2023-05-28T08:05:53;19.90;99.90
12520;DHT22;6325;49.540;8.364;2023-05-28T08:08:20;19.20;99.90
12520;DHT22;6325;49.540;8.364;2023-05-28T08:10:47;19.40;99.90
12520;DHT22;6325;49.540;8.364;2023-05-28T08:13:14;19.80;99.90
12520;DHT22;6325;49.540;8.364;2023-05-28T08:15:41;19.70;99.90
12520;DHT22;6325;49.540;8.364;2023-05-28T08:18:09;19.80;99.90
12520;DHT22;6325;49.540;8.364;2023-05-28T08:20:35;20.00;99.90
12520;DHT22;6325;49.540;8.364;2023-05-28T08:23:02;20.40;99.90
12520;DHT22;6325;49.540;8.364;2023-05-28T08:25:29;20.30;99.90
12520;DHT22;6325;49.540;8.364;2023-05-28T08:27:56;20.20;99.90
12520;DHT22;6325;49.540;8.364;2023-05-28T08:30:23;20.20;99.90
12520;DHT22;6325;49.540;8.364;2023-05-28T08:32:50;20.40;99.90
12520;DHT22;6325;49.540;8.364;2023-05-28T08:35:18;20.60;99.90
12520;DHT22;6325;49.540;8.364;2023-05-28T08:37:45;20.60;99.90
12520;DHT22;6325;49.540;8.364;2023-05-28T08:40:12;21.30;99.90
12520;DHT22;6325;49.540;8.364;2023-05-28T08:42:39;20.90;99.90
12520;DHT22;6325;49.540;8.364;2023-05-28T08:45:07;20.90;99.90
12520;DHT22;6325;49.540;8.364;2023-05-28T08:47:35;20.50;99.90
12520;DHT22;6325;49.540;8.364;2023-05-28T08:50:04;21.30;99.90
12520;DHT22;6325;49.540;8.364;2023-05-28T08:52:33;20.90;99.90
12520;DHT22;6325;49.540;8.364;2023-05-28T08:55:01;21.20;99.90
12520;DHT22;6325;49.540;8.364;2023-05-28T08:57:29;21.80;99.90
12520;DHT22;6325;49.540;8.364;2023-05-28T08:59:57;21.40;99.90
12520;DHT22;6325;49.540;8.364;2023-05-28T09:02:25;21.40;99.90
12520;DHT22;6325;49.540;8.364;2023-05-28T09:04:52;21.50;99.90
12520;DHT22;6325;49.540;8.364;2023-05-28T09:07:21;21.80;99.90
12520;DHT22;6325;49.540;8.364;2023-05-28T09:09:49;22.30;99.90
12520;DHT22;6325;49.540;8.364;2023-05-28T09:12:21;21.90;99.90
12520;DHT22;6325;49.540;8.364;2023-05-28T09:14:50;22.30;99.90
12520;DHT22;6325;49.540;8.364;2023-05-28T09:17:17;21.60;99.90
12520;DHT22;6325;49.540;8.364;2023-05-28T09:19:57;22.10;99.90
12520;DHT22;6325;49.540;8.364;2023-05-28T09:22:26;22.50;99.90
12520;DHT22;6325;49.540;8.364;2023-05-28T09:24:54;22.40;99.90
12520;DHT22;6325;49.540;8.364;2023-05-28T09:27:21;22.50;99.90
12520;DHT22;6325;49.540;8.364;2023-05-28T09:29:49;22.70;99.90
12520;DHT22;6325;49.540;8.364;2023-05-28T09:32:18;22.80;99.90
12520;DHT22;6325;49.540;8.364;2023-05-28T09:34:48;22.90;99.90
12520;DHT22;6325;49.540;8.364;2023-05-28T09:37:16;22.70;99.90
12520;DHT22;6325;49.540;8.364;2023-05-28T09:39:43;23.00;99.90
12520;DHT22;6325;49.540;8.364;2023-05-28T09:42:11;23.10;99.90
12520;DHT22;6325;49.540;8.364;2023-05-28T09:44:40;23.00;99.10
12520;DHT22;6325;49.540;8.364;2023-05-28T09:47:14;23.90;99.40
12520;DHT22;6325;49.540;8.364;2023-05-28T09:49:42;23.60;98.80
12520;DHT22;6325;49.540;8.364;2023-05-28T09:52:14;23.90;99.20
12520;DHT22;6325;49.540;8.364;2023-05-28T09:54:43;23.80;98.50
12520;DHT22;6325;49.540;8.364;2023-05-28T09:57:14;24.30;98.10
12520;DHT22;6325;49.540;8.364;2023-05-28T09:59:42;23.80;95.90
12520;DHT22;6325;49.540;8.364;2023-05-28T10:02:22;24.30;96.40
12520;DHT22;6325;49.540;8.364;2023-05-28T10:04:53;24.50;96.90
12520;DHT22;6325;49.540;8.364;2023-05-28T10:07:22;24.60;96.70
12520;DHT22;6325;49.540;8.364;2023-05-28T10:09:50;24.60;95.30
12520;DHT22;6325;49.540;8.364;2023-05-28T10:12:22;25.00;93.70
12520;DHT22;6325;49.540;8.364;2023-05-28T10:14:50;25.10;93.60
12520;DHT22;6325;49.540;8.364;2023-05-28T10:17:17;25.30;94.30
12520;DHT22;6325;49.540;8.364;2023-05-28T10:19:45;24.80;94.50
12520;DHT22;6325;49.540;8.364;2023-05-28T10:22:12;25.40;94.80
12520;DHT22;6325;49.540;8.364;2023-05-28T10:24:39;25.50;95.00
12520;DHT22;6325;49.540;8.364;2023-05-28T10:27:07;25.50;94.10
12520;DHT22;6325;49.540;8.364;2023-05-28T10:29:40;25.70;93.00
12520;DHT22;6325;49.540;8.364;2023-05-28T10:32:07;25.40;93.80
12520;DHT22;6325;49.540;8.364;2023-05-28T10:34:36;25.80;92.20
12520;DHT22;6325;49.540;8.364;2023-05-28T10:37:03;25.80;90.40
12520;DHT22;6325;49.540;8.364;2023-05-28T10:39:37;26.00;91.40
12520;DHT22;6325;49.540;8.364;2023-05-28T10:42:06;26.40;90.70
12520;DHT22;6325;49.540;8.364;2023-05-28T10:44:49;26.60;91.40
12520;DHT22;6325;49.540;8.364;2023-05-28T10:47:16;25.80;91.60
12520;DHT22;6325;49.540;8.364;2023-05-28T10:49:59;26.30;88.30
12520;DHT22;6325;49.540;8.364;2023-05-28T10:52:27;26.40;90.30
12520;DHT22;6325;49.540;8.364;2023-05-28T10:54:54;26.50;90.60
12520;DHT22;6325;49.540;8.364;2023-05-28T10:57:21;26.60;90.50
12520;DHT22;6325;49.540;8.364;2023-05-28T10:59:51;26.70;88.30
12520;DHT22;6325;49.540;8.364;2023-05-28T11:02:21;27.00;90.10
12520;DHT22;6325;49.540;8.364;2023-05-28T11:04:50;27.10;85.40
12520;DHT22;6325;49.540;8.364;2023-05-28T11:07:19;27.00;85.20
12520;DHT22;6325;49.540;8.364;2023-05-28T11:09:48;27.20;88.40
12520;DHT22;6325;49.540;8.364;2023-05-28T11:12:16;27.10;86.70
12520;DHT22;6325;49.540;8.364;2023-05-28T11:14:43;27.00;83.70
12520;DHT22;6325;49.540;8.364;2023-05-28T11:17:12;27.30;86.20
12520;DHT22;6325;49.540;8.364;2023-05-28T11:19:40;27.20;83.40
12520;DHT22;6325;49.540;8.364;2023-05-28T11:22:08;27.20;82.00
12520;DHT22;6325;49.540;8.364;2023-05-28T11:24:56;27.30;85.30
12520;DHT22;6325;49.540;8.364;2023-05-28T11:27:25;27.50;84.00
12520;DHT22;6325;49.540;8.364;2023-05-28T11:29:54;27.40;84.90
12520;DHT22;6325;49.540;8.364;2023-05-28T11:32:22;27.50;83.80
12520;DHT22;6325;49.540;8.364;2023-05-28T11:34:51;27.40;83.40
12520;DHT22;6325;49.540;8.364;2023-05-28T11:37:23;27.50;81.60
12520;DHT22;6325;49.540;8.364;2023-05-28T11:39:52;28.30;83.20
12520;DHT22;6325;49.540;8.364;2023-05-28T11:42:20;28.40;82.70
12520;DHT22;6325;49.540;8.364;2023-05-28T11:44:48;28.20;79.60
12520;DHT22;6325;49.540;8.364;2023-05-28T11:47:15;28.00;80.50
12520;DHT22;6325;49.540;8.364;2023-05-28T11:49:44;28.20;79.70
12520;DHT22;6325;49.540;8.364;2023-05-28T11:52:12;28.40;79.00
12520;DHT22;6325;49.540;8.364;2023-05-28T11:54:39;28.40;78.50
12520;DHT22;6325;49.540;8.364;2023-05-28T11:57:07;28.30;76.20
12520;DHT22;6325;49.540;8.364;2023-05-28T11:59:35;28.40;78.90
12520;DHT22;6325;49.540;8.364;2023-05-28T12:02:11;28.50;77.50
12520;DHT22;6325;49.540;8.364;2023-05-28T12:04:39;28.30;74.70
12520;DHT22;6325;49.540;8.364;2023-05-28T12:07:13;28.60;75.10
12520;DHT22;6325;49.540;8.364;2023-05-28T12:09:40;28.60;73.20
12520;DHT22;6325;49.540;8.364;2023-05-28T12:12:10;28.70;75.00
12520;DHT22;6325;49.540;8.364;2023-05-28T12:14:37;28.70;73.00
12520;DHT22;6325;49.540;8.364;2023-05-28T12:17:08;28.80;70.40
12520;DHT22;6325;49.540;8.364;2023-05-28T12:19:36;28.80;72.80
12520;DHT22;6325;49.540;8.364;2023-05-28T12:22:13;28.90;73.60
12520;DHT22;6325;49.540;8.364;2023-05-28T12:24:47;29.10;73.30
12520;DHT22;6325;49.540;8.364;2023-05-28T12:27:14;28.80;70.50
12520;DHT22;6325;49.540;8.364;2023-05-28T12:29:41;29.20;67.10
12520;DHT22;6325;49.540;8.364;2023-05-28T12:32:08;28.90;66.30
12520;DHT22;6325;49.540;8.364;2023-05-28T12:34:35;29.00;67.70
12520;DHT22;6325;49.540;8.364;2023-05-28T12:37:01;29.10;71.30
12520;DHT22;6325;49.540;8.364;2023-05-28T12:39:31;29.30;68.90
12520;DHT22;6325;49.540;8.364;2023-05-28T12:41:58;29.50;70.00
12520;DHT22;6325;49.540;8.364;2023-05-28T12:44:27;29.60;66.70
12520;DHT22;6325;49.540;8.364;2023-05-28T12:46:53;30.20;64.10
12520;DHT22;6325;49.540;8.364;2023-05-28T12:49:20;30.30;66.10
12520;DHT22;6325;49.540;8.364;2023-05-28T12:51:47;30.10;68.10
12520;DHT22;6325;49.540;8.364;2023-05-28T12:54:15;29.90;66.10
12520;DHT22;6325;49.540;8.364;2023-05-28T12:56:43;29.40;66.00
12520;DHT22;6325;49.540;8.364;2023-05-28T12:59:20;29.90;65.70
12520;DHT22;6325;49.540;8.364;2023-05-28T13:01:47;30.00;67.10
12520;DHT22;6325;49.540;8.364;2023-05-28T13:04:14;30.00;66.00
12520;DHT22;6325;49.540;8.364;2023-05-28T13:06:41;30.50;62.50
12520;DHT22;6325;49.540;8.364;2023-05-28T13:09:08;30.00;62.30
12520;DHT22;6325;49.540;8.364;2023-05-28T13:11:37;30.30;65.20
12520;DHT22;6325;49.540;8.364;2023-05-28T13:14:06;30.20;66.20
12520;DHT22;6325;49.540;8.364;2023-05-28T13:16:34;30.70;64.60
12520;DHT22;6325;49.540;8.364;2023-05-28T13:19:01;30.50;63.40
12520;DHT22;6325;49.540;8.364;2023-05-28T13:21:28;30.50;63.60
12520;DHT22;6325;49.540;8.364;2023-05-28T13:23:57;30.20;62.40
12520;DHT22;6325;49.540;8.364;2023-05-28T13:26:25;30.30;62.40
12520;DHT22;6325;49.540;8.364;2023-05-28T13:28:52;30.20;62.80
12520;DHT22;6325;49.540;8.364;2023-05-28T13:31:20;30.70;63.30
12520;DHT22;6325;49.540;8.364;2023-05-28T13:33:47;30.60;62.00
12520;DHT22;6325;49.540;8.364;2023-05-28T13:36:14;30.90;63.60
12520;DHT22;6325;49.540;8.364;2023-05-28T13:38:41;30.60;61.50
12520;DHT22;6325;49.540;8.364;2023-05-28T13:41:08;31.00;60.00
12520;DHT22;6325;49.540;8.364;2023-05-28T13:43:35;31.00;60.40
12520;DHT22;6325;49.540;8.364;2023-05-28T13:46:03;30.90;60.70
12520;DHT22;6325;49.540;8.364;2023-05-28T13:48:31;31.10;59.60
12520;DHT22;6325;49.540;8.364;2023-05-28T13:50:58;30.90;61.60
12520;DHT22;6325;49.540;8.364;2023-05-28T13:53:26;31.40;63.30
12520;DHT22;6325;49.540;8.364;2023-05-28T13:55:53;31.80;59.40
12520;DHT22;6325;49.540;8.364;2023-05-28T13:58:19;31.60;59.40
12520;DHT22;6325;49.540;8.364;2023-05-28T14:00:46;31.60;56.80
12520;DHT22;6325;49.540;8.364;2023-05-28T14:03:13;31.80;58.10
12520;DHT22;6325;49.540;8.364;2023-05-28T14:05:43;31.70;58.00
12520;DHT22;6325;49.540;8.364;2023-05-28T14:08:10;32.10;58.60
12520;DHT22;6325;49.540;8.364;2023-05-28T14:10:37;32.30;57.00
12520;DHT22;6325;49.540;8.364;2023-05-28T14:13:03;32.30;54.60
12520;DHT22;6325;49.540;8.364;2023-05-28T14:15:30;31.80;57.80
12520;DHT22;6325;49.540;8.364;2023-05-28T14:17:58;31.60;55.50
12520;DHT22;6325;49.540;8.364;2023-05-28T14:20:25;31.40;55.60
12520;DHT22;6325;49.540;8.364;2023-05-28T14:22:53;31.70;55.20
12520;DHT22;6325;49.540;8.364;2023-05-28T14:25:20;31.50;57.40
12520;DHT22;6325;49.540;8.364;2023-05-28T14:27:47;31.70;57.50
12520;DHT22;6325;49.540;8.364;2023-05-28T14:30:14;31.60;55.80
12520;DHT22;6325;49.540;8.364;2023-05-28T14:32:41;31.10;57.60
12520;DHT22;6325;49.540;8.364;2023-05-28T14:35:08;30.80;58.90
12520;DHT22;6325;49.540;8.364;2023-05-28T14:37:35;31.10;57.90
12520;DHT22;6325;49.540;8.364;2023-05-28T14:40:03;31.00;57.20
12520;DHT22;6325;49.540;8.364;2023-05-28T14:42:31;31.20;57.10
12520;DHT22;6325;49.540;8.364;2023-05-28T14:44:57;31.00;60.70
12520;DHT22;6325;49.540;8.364;2023-05-28T14:47:24;31.00;61.90
12520;DHT22;6325;49.540;8.364;2023-05-28T14:49:51;31.10;58.70
12520;DHT22;6325;49.540;8.364;2023-05-28T14:52:23;31.20;61.60
12520;DHT22;6325;49.540;8.364;2023-05-28T14:54:50;31.40;57.60
12520;DHT22;6325;49.540;8.364;2023-05-28T14:57:19;31.20;58.40
12520;DHT22;6325;49.540;8.364;2023-05-28T14:59:46;31.20;56.00
12520;DHT22;6325;49.540;8.364;2023-05-28T15:02:14;31.60;58.50
12520;DHT22;6325;49.540;8.364;2023-05-28T15:04:41;31.50;58.10
12520;DHT22;6325;49.540;8.364;2023-05-28T15:07:08;31.20;59.50
12520;DHT22;6325;49.540;8.364;2023-05-28T15:09:36;31.50;56.90
12520;DHT22;6325;49.540;8.364;2023-05-28T15:12:03;31.30;57.40
12520;DHT22;6325;49.540;8.364;2023-05-28T15:14:32;32.10;57.60
12520;DHT22;6325;49.540;8.364;2023-05-28T15:16:59;32.00;59.60
12520;DHT22;6325;49.540;8.364;2023-05-28T15:19:26;32.00;56.80
12520;DHT22;6325;49.540;8.364;2023-05-28T15:21:53;32.30;56.70
12520;DHT22;6325;49.540;8.364;2023-05-28T15:24:21;32.30;56.70
12520;DHT22;6325;49.540;8.364;2023-05-28T15:26:48;32.00;55.80
12520;DHT22;6325;49.540;8.364;2023-05-28T15:29:15;32.40;58.60
12520;DHT22;6325;49.540;8.364;2023-05-28T15:31:46;32.00;55.90
12520;DHT22;6325;49.540;8.364;2023-05-28T15:34:13;32.00;55.70
12520;DHT22;6325;49.540;8.364;2023-05-28T15:36:40;31.90;53.90
12520;DHT22;6325;49.540;8.364;2023-05-28T15:39:07;31.70;53.00
12520;DHT22;6325;49.540;8.364;2023-05-28T15:41:35;32.10;52.80
12520;DHT22;6325;49.540;8.364;2023-05-28T15:44:03;32.20;55.10
12520;DHT22;6325;49.540;8.364;2023-05-28T15:46:30;31.90;54.60
12520;DHT22;6325;49.540;8.364;2023-05-28T15:48:59;31.70;54.10